Terminal Aerodrome Forecast
Issued by NWS Duluth, MN

Home | Current Version | Previous Version | Text Only | Print | Product List | Glossary On
Versions: 1 2 3 4 5 6 7 8 9 10 11 12 13 14 15 16 17 18 19 20 21 22 23 24 25 26
000
FTUS43 KDLH 161100
TAFINL
TAF
KINL 161139Z 1612/1712 24007KT P6SM SCT070 BKN120
     FM161500 28008G12KT P6SM BKN070
     FM162100 29006KT P6SM BKN080
     FM170100 VRB04KT P6SM BKN060
     FM170500 22007KT P6SM BKN050 OVC140=

USA.gov is the U.S. government's official web portal to all federal, state and local government web resources and services.